sensor_id;sensor_type;location;lat;lon;timestamp;P1;durP1;ratioP1;P2;durP2;ratioP2
9422;SDS011;65863;49.506;10.400;2024-03-22T00:02:32;17.63;;;13.40;;
9422;SDS011;65863;49.506;10.400;2024-03-22T00:05:17;19.50;;;13.23;;
9422;SDS011;65863;49.506;10.400;2024-03-22T00:08:03;24.90;;;14.53;;
9422;SDS011;65863;49.506;10.400;2024-03-22T00:10:47;21.03;;;14.13;;
9422;SDS011;65863;49.506;10.400;2024-03-22T00:13:32;19.23;;;14.23;;
9422;SDS011;65863;49.506;10.400;2024-03-22T00:16:16;22.47;;;15.67;;
9422;SDS011;65863;49.506;10.400;2024-03-22T00:19:01;22.90;;;15.83;;
9422;SDS011;65863;49.506;10.400;2024-03-22T00:21:45;21.33;;;15.00;;
9422;SDS011;65863;49.506;10.400;2024-03-22T00:24:29;20.90;;;15.50;;
9422;SDS011;65863;49.506;10.400;2024-03-22T00:27:15;18.17;;;14.37;;
9422;SDS011;65863;49.506;10.400;2024-03-22T00:29:59;23.10;;;14.87;;
9422;SDS011;65863;49.506;10.400;2024-03-22T00:32:43;19.43;;;14.13;;
9422;SDS011;65863;49.506;10.400;2024-03-22T00:35:28;20.60;;;14.77;;
9422;SDS011;65863;49.506;10.400;2024-03-22T00:38:13;20.30;;;15.03;;
9422;SDS011;65863;49.506;10.400;2024-03-22T00:41:00;23.53;;;15.57;;
9422;SDS011;65863;49.506;10.400;2024-03-22T00:43:44;20.63;;;14.23;;
9422;SDS011;65863;49.506;10.400;2024-03-22T00:46:28;24.23;;;14.63;;
9422;SDS011;65863;49.506;10.400;2024-03-22T00:49:12;21.23;;;14.70;;
9422;SDS011;65863;49.506;10.400;2024-03-22T00:51:56;20.53;;;14.03;;
9422;SDS011;65863;49.506;10.400;2024-03-22T00:54:40;21.30;;;15.07;;
9422;SDS011;65863;49.506;10.400;2024-03-22T00:57:25;18.23;;;13.33;;
9422;SDS011;65863;49.506;10.400;2024-03-22T01:00:09;17.53;;;13.10;;
9422;SDS011;65863;49.506;10.400;2024-03-22T01:02:53;18.37;;;13.40;;
9422;SDS011;65863;49.506;10.400;2024-03-22T01:05:39;17.73;;;14.23;;
9422;SDS011;65863;49.506;10.400;2024-03-22T01:08:26;19.47;;;13.43;;
9422;SDS011;65863;49.506;10.400;2024-03-22T01:11:11;19.77;;;13.93;;
9422;SDS011;65863;49.506;10.400;2024-03-22T01:13:57;16.40;;;12.87;;
9422;SDS011;65863;49.506;10.400;2024-03-22T01:16:42;16.43;;;11.97;;
9422;SDS011;65863;49.506;10.400;2024-03-22T01:19:26;16.83;;;12.40;;
9422;SDS011;65863;49.506;10.400;2024-03-22T01:22:11;15.33;;;11.93;;
9422;SDS011;65863;49.506;10.400;2024-03-22T01:24:55;17.13;;;12.60;;
9422;SDS011;65863;49.506;10.400;2024-03-22T01:27:39;18.97;;;13.17;;
9422;SDS011;65863;49.506;10.400;2024-03-22T01:30:23;18.67;;;13.07;;
9422;SDS011;65863;49.506;10.400;2024-03-22T01:33:12;18.37;;;13.53;;
9422;SDS011;65863;49.506;10.400;2024-03-22T01:35:56;17.40;;;12.93;;
9422;SDS011;65863;49.506;10.400;2024-03-22T01:38:40;18.17;;;12.70;;
9422;SDS011;65863;49.506;10.400;2024-03-22T01:41:24;16.73;;;12.17;;
9422;SDS011;65863;49.506;10.400;2024-03-22T01:44:08;16.47;;;12.17;;
9422;SDS011;65863;49.506;10.400;2024-03-22T01:46:52;19.23;;;13.60;;
9422;SDS011;65863;49.506;10.400;2024-03-22T01:49:36;17.90;;;11.80;;
9422;SDS011;65863;49.506;10.400;2024-03-22T01:52:21;19.07;;;11.37;;
9422;SDS011;65863;49.506;10.400;2024-03-22T01:55:05;17.30;;;11.60;;
9422;SDS011;65863;49.506;10.400;2024-03-22T01:57:50;21.80;;;12.23;;
9422;SDS011;65863;49.506;10.400;2024-03-22T02:00:39;19.17;;;12.73;;
9422;SDS011;65863;49.506;10.400;2024-03-22T02:03:23;16.13;;;11.90;;
9422;SDS011;65863;49.506;10.400;2024-03-22T02:06:07;21.07;;;13.23;;
9422;SDS011;65863;49.506;10.400;2024-03-22T02:08:53;17.67;;;13.07;;
9422;SDS011;65863;49.506;10.400;2024-03-22T02:11:38;17.03;;;13.23;;
9422;SDS011;65863;49.506;10.400;2024-03-22T02:14:23;24.10;;;14.60;;
9422;SDS011;65863;49.506;10.400;2024-03-22T02:17:09;20.77;;;14.23;;
9422;SDS011;65863;49.506;10.400;2024-03-22T02:19:53;21.43;;;14.40;;
9422;SDS011;65863;49.506;10.400;2024-03-22T02:22:37;21.03;;;14.07;;
9422;SDS011;65863;49.506;10.400;2024-03-22T02:25:22;20.27;;;14.40;;
9422;SDS011;65863;49.506;10.400;2024-03-22T02:28:06;21.57;;;14.27;;
9422;SDS011;65863;49.506;10.400;2024-03-22T02:30:51;23.00;;;12.83;;
9422;SDS011;65863;49.506;10.400;2024-03-22T02:33:35;19.40;;;13.00;;
9422;SDS011;65863;49.506;10.400;2024-03-22T02:36:18;18.40;;;12.73;;
9422;SDS011;65863;49.506;10.400;2024-03-22T02:39:02;19.27;;;12.27;;
9422;SDS011;65863;49.506;10.400;2024-03-22T02:41:48;18.77;;;13.13;;
9422;SDS011;65863;49.506;10.400;2024-03-22T02:44:32;21.00;;;13.43;;
9422;SDS011;65863;49.506;10.400;2024-03-22T02:47:18;21.80;;;15.00;;
9422;SDS011;65863;49.506;10.400;2024-03-22T02:50:02;19.53;;;13.43;;
9422;SDS011;65863;49.506;10.400;2024-03-22T02:52:45;19.00;;;13.00;;
9422;SDS011;65863;49.506;10.400;2024-03-22T02:55:30;16.60;;;12.77;;
9422;SDS011;65863;49.506;10.400;2024-03-22T02:58:28;17.60;;;13.00;;
9422;SDS011;65863;49.506;10.400;2024-03-22T03:01:12;17.27;;;12.70;;
9422;SDS011;65863;49.506;10.400;2024-03-22T03:03:56;19.13;;;13.57;;
9422;SDS011;65863;49.506;10.400;2024-03-22T03:06:40;21.97;;;14.53;;
9422;SDS011;65863;49.506;10.400;2024-03-22T03:09:26;20.43;;;13.50;;
9422;SDS011;65863;49.506;10.400;2024-03-22T03:12:10;21.07;;;13.73;;
9422;SDS011;65863;49.506;10.400;2024-03-22T03:14:53;20.07;;;13.63;;
9422;SDS011;65863;49.506;10.400;2024-03-22T03:17:37;19.33;;;13.33;;
9422;SDS011;65863;49.506;10.400;2024-03-22T03:20:24;18.47;;;12.83;;
9422;SDS011;65863;49.506;10.400;2024-03-22T03:23:09;21.07;;;13.07;;
9422;SDS011;65863;49.506;10.400;2024-03-22T03:25:55;19.50;;;13.73;;
9422;SDS011;65863;49.506;10.400;2024-03-22T03:28:39;21.97;;;13.83;;
9422;SDS011;65863;49.506;10.400;2024-03-22T03:31:23;23.33;;;15.47;;
9422;SDS011;65863;49.506;10.400;2024-03-22T03:34:07;28.73;;;14.53;;
9422;SDS011;65863;49.506;10.400;2024-03-22T03:36:51;21.50;;;14.10;;
9422;SDS011;65863;49.506;10.400;2024-03-22T03:39:35;20.00;;;14.07;;
9422;SDS011;65863;49.506;10.400;2024-03-22T03:42:20;22.87;;;15.30;;
9422;SDS011;65863;49.506;10.400;2024-03-22T03:45:04;22.63;;;15.40;;
9422;SDS011;65863;49.506;10.400;2024-03-22T03:47:52;19.17;;;13.37;;
9422;SDS011;65863;49.506;10.400;2024-03-22T03:50:36;18.33;;;13.30;;
9422;SDS011;65863;49.506;10.400;2024-03-22T03:53:20;17.97;;;12.70;;
9422;SDS011;65863;49.506;10.400;2024-03-22T03:56:05;19.80;;;12.67;;
9422;SDS011;65863;49.506;10.400;2024-03-22T03:58:49;16.40;;;12.10;;
9422;SDS011;65863;49.506;10.400;2024-03-22T04:01:33;17.67;;;12.00;;
9422;SDS011;65863;49.506;10.400;2024-03-22T04:04:16;17.20;;;12.13;;
9422;SDS011;65863;49.506;10.400;2024-03-22T04:07:00;19.87;;;12.23;;
9422;SDS011;65863;49.506;10.400;2024-03-22T04:09:46;16.50;;;11.70;;
9422;SDS011;65863;49.506;10.400;2024-03-22T04:12:30;17.73;;;12.40;;
9422;SDS011;65863;49.506;10.400;2024-03-22T04:15:14;18.00;;;12.67;;
9422;SDS011;65863;49.506;10.400;2024-03-22T04:18:00;17.27;;;12.27;;
9422;SDS011;65863;49.506;10.400;2024-03-22T04:20:54;18.70;;;12.63;;
9422;SDS011;65863;49.506;10.400;2024-03-22T04:23:40;19.00;;;13.10;;
9422;SDS011;65863;49.506;10.400;2024-03-22T04:26:24;18.93;;;12.43;;
9422;SDS011;65863;49.506;10.400;2024-03-22T04:29:08;22.70;;;13.30;;
9422;SDS011;65863;49.506;10.400;2024-03-22T04:31:51;17.63;;;12.50;;
9422;SDS011;65863;49.506;10.400;2024-03-22T04:34:35;17.97;;;11.50;;
9422;SDS011;65863;49.506;10.400;2024-03-22T04:37:19;19.80;;;13.43;;
9422;SDS011;65863;49.506;10.400;2024-03-22T04:40:05;22.23;;;12.93;;
9422;SDS011;65863;49.506;10.400;2024-03-22T04:42:49;19.40;;;12.57;;
9422;SDS011;65863;49.506;10.400;2024-03-22T04:45:34;19.77;;;11.87;;
9422;SDS011;65863;49.506;10.400;2024-03-22T04:48:18;18.20;;;12.93;;
9422;SDS011;65863;49.506;10.400;2024-03-22T04:51:07;18.63;;;12.47;;
9422;SDS011;65863;49.506;10.400;2024-03-22T04:53:52;17.40;;;12.40;;
9422;SDS011;65863;49.506;10.400;2024-03-22T04:56:36;20.70;;;12.67;;
9422;SDS011;65863;49.506;10.400;2024-03-22T04:59:20;19.77;;;12.20;;
9422;SDS011;65863;49.506;10.400;2024-03-22T05:02:05;17.37;;;12.77;;
9422;SDS011;65863;49.506;10.400;2024-03-22T05:04:50;17.70;;;12.67;;
9422;SDS011;65863;49.506;10.400;2024-03-22T05:07:34;19.63;;;13.10;;
9422;SDS011;65863;49.506;10.400;2024-03-22T05:10:20;18.63;;;12.63;;
9422;SDS011;65863;49.506;10.400;2024-03-22T05:13:04;18.80;;;12.97;;
9422;SDS011;65863;49.506;10.400;2024-03-22T05:15:49;18.83;;;12.13;;
9422;SDS011;65863;49.506;10.400;2024-03-22T05:18:33;18.20;;;12.40;;
9422;SDS011;65863;49.506;10.400;2024-03-22T05:21:17;17.07;;;12.13;;
9422;SDS011;65863;49.506;10.400;2024-03-22T05:24:01;19.13;;;11.70;;
9422;SDS011;65863;49.506;10.400;2024-03-22T05:26:45;18.17;;;12.20;;
9422;SDS011;65863;49.506;10.400;2024-03-22T05:29:30;17.40;;;13.03;;
9422;SDS011;65863;49.506;10.400;2024-03-22T05:32:14;15.60;;;11.50;;
9422;SDS011;65863;49.506;10.400;2024-03-22T05:34:58;17.90;;;12.50;;
9422;SDS011;65863;49.506;10.400;2024-03-22T05:37:43;22.20;;;12.80;;
9422;SDS011;65863;49.506;10.400;2024-03-22T05:40:28;17.10;;;12.17;;
9422;SDS011;65863;49.506;10.400;2024-03-22T05:43:13;17.57;;;11.60;;
9422;SDS011;65863;49.506;10.400;2024-03-22T05:45:57;18.20;;;13.03;;
9422;SDS011;65863;49.506;10.400;2024-03-22T05:48:44;18.67;;;12.80;;
9422;SDS011;65863;49.506;10.400;2024-03-22T05:51:28;19.63;;;13.40;;
9422;SDS011;65863;49.506;10.400;2024-03-22T05:54:13;18.50;;;13.57;;
9422;SDS011;65863;49.506;10.400;2024-03-22T05:56:57;19.43;;;13.80;;
9422;SDS011;65863;49.506;10.400;2024-03-22T05:59:41;21.00;;;14.23;;
9422;SDS011;65863;49.506;10.400;2024-03-22T06:02:26;21.17;;;14.20;;
9422;SDS011;65863;49.506;10.400;2024-03-22T06:05:10;17.03;;;12.27;;
9422;SDS011;65863;49.506;10.400;2024-03-22T06:07:54;16.37;;;10.67;;
9422;SDS011;65863;49.506;10.400;2024-03-22T06:10:38;11.43;;;9.90;;
9422;SDS011;65863;49.506;10.400;2024-03-22T06:13:22;14.17;;;10.53;;
9422;SDS011;65863;49.506;10.400;2024-03-22T06:16:07;14.47;;;10.57;;
9422;SDS011;65863;49.506;10.400;2024-03-22T06:18:51;13.53;;;11.43;;
9422;SDS011;65863;49.506;10.400;2024-03-22T06:21:35;15.17;;;11.40;;
9422;SDS011;65863;49.506;10.400;2024-03-22T06:24:19;14.97;;;11.53;;
9422;SDS011;65863;49.506;10.400;2024-03-22T06:27:03;16.70;;;11.93;;
9422;SDS011;65863;49.506;10.400;2024-03-22T06:29:48;14.50;;;10.90;;
9422;SDS011;65863;49.506;10.400;2024-03-22T06:32:31;14.90;;;10.60;;
9422;SDS011;65863;49.506;10.400;2024-03-22T06:35:17;16.07;;;12.23;;
9422;SDS011;65863;49.506;10.400;2024-03-22T06:38:01;15.63;;;10.60;;
9422;SDS011;65863;49.506;10.400;2024-03-22T06:40:48;12.93;;;10.53;;
9422;SDS011;65863;49.506;10.400;2024-03-22T06:43:32;13.77;;;10.87;;
9422;SDS011;65863;49.506;10.400;2024-03-22T06:46:17;14.53;;;10.37;;
9422;SDS011;65863;49.506;10.400;2024-03-22T06:49:01;17.17;;;10.60;;
9422;SDS011;65863;49.506;10.400;2024-03-22T06:51:44;11.77;;;9.60;;
9422;SDS011;65863;49.506;10.400;2024-03-22T06:54:29;12.23;;;9.60;;
9422;SDS011;65863;49.506;10.400;2024-03-22T06:57:13;13.63;;;10.60;;
9422;SDS011;65863;49.506;10.400;2024-03-22T06:59:57;14.33;;;10.00;;
9422;SDS011;65863;49.506;10.400;2024-03-22T07:02:42;14.90;;;10.00;;
9422;SDS011;65863;49.506;10.400;2024-03-22T07:05:26;10.80;;;8.80;;
9422;SDS011;65863;49.506;10.400;2024-03-22T07:08:10;14.00;;;10.20;;
9422;SDS011;65863;49.506;10.400;2024-03-22T07:10:54;13.23;;;9.83;;
9422;SDS011;65863;49.506;10.400;2024-03-22T07:13:38;11.43;;;9.07;;
9422;SDS011;65863;49.506;10.400;2024-03-22T07:16:22;12.37;;;9.50;;
9422;SDS011;65863;49.506;10.400;2024-03-22T07:19:06;12.27;;;9.47;;
9422;SDS011;65863;49.506;10.400;2024-03-22T07:21:50;11.40;;;8.87;;
9422;SDS011;65863;49.506;10.400;2024-03-22T07:24:34;15.43;;;9.43;;
9422;SDS011;65863;49.506;10.400;2024-03-22T07:27:20;10.60;;;8.87;;
9422;SDS011;65863;49.506;10.400;2024-03-22T07:30:04;12.13;;;8.77;;
9422;SDS011;65863;49.506;10.400;2024-03-22T07:32:49;10.90;;;8.97;;
9422;SDS011;65863;49.506;10.400;2024-03-22T07:35:34;12.67;;;8.73;;
9422;SDS011;65863;49.506;10.400;2024-03-22T07:38:19;11.87;;;8.60;;
9422;SDS011;65863;49.506;10.400;2024-03-22T07:41:02;11.50;;;8.70;;
9422;SDS011;65863;49.506;10.400;2024-03-22T07:43:48;14.10;;;8.13;;
9422;SDS011;65863;49.506;10.400;2024-03-22T07:46:32;11.90;;;8.77;;
9422;SDS011;65863;49.506;10.400;2024-03-22T07:49:16;15.43;;;8.63;;
9422;SDS011;65863;49.506;10.400;2024-03-22T07:52:00;10.57;;;9.10;;
9422;SDS011;65863;49.506;10.400;2024-03-22T07:54:44;12.87;;;9.13;;
9422;SDS011;65863;49.506;10.400;2024-03-22T07:57:28;11.67;;;9.13;;
9422;SDS011;65863;49.506;10.400;2024-03-22T08:00:14;13.13;;;9.30;;
9422;SDS011;65863;49.506;10.400;2024-03-22T08:02:58;13.93;;;9.13;;
9422;SDS011;65863;49.506;10.400;2024-03-22T08:05:42;10.37;;;9.20;;
9422;SDS011;65863;49.506;10.400;2024-03-22T08:08:28;13.53;;;9.73;;
9422;SDS011;65863;49.506;10.400;2024-03-22T08:11:13;12.37;;;9.07;;
9422;SDS011;65863;49.506;10.400;2024-03-22T08:13:57;15.77;;;9.63;;
9422;SDS011;65863;49.506;10.400;2024-03-22T08:16:45;12.90;;;9.80;;
9422;SDS011;65863;49.506;10.400;2024-03-22T08:19:31;13.57;;;9.80;;
9422;SDS011;65863;49.506;10.400;2024-03-22T08:22:15;12.00;;;9.30;;
9422;SDS011;65863;49.506;10.400;2024-03-22T08:24:59;11.07;;;9.03;;
9422;SDS011;65863;49.506;10.400;2024-03-22T08:27:46;12.93;;;10.10;;
9422;SDS011;65863;49.506;10.400;2024-03-22T08:30:30;12.47;;;10.00;;
9422;SDS011;65863;49.506;10.400;2024-03-22T08:33:14;10.77;;;8.83;;
9422;SDS011;65863;49.506;10.400;2024-03-22T08:35:58;14.30;;;9.70;;
9422;SDS011;65863;49.506;10.400;2024-03-22T08:38:45;11.13;;;9.33;;
9422;SDS011;65863;49.506;10.400;2024-03-22T08:41:29;11.03;;;9.30;;
9422;SDS011;65863;49.506;10.400;2024-03-22T08:44:13;10.83;;;9.03;;
9422;SDS011;65863;49.506;10.400;2024-03-22T08:46:57;14.77;;;8.53;;
9422;SDS011;65863;49.506;10.400;2024-03-22T08:49:41;12.47;;;8.57;;
9422;SDS011;65863;49.506;10.400;2024-03-22T08:52:29;11.73;;;9.30;;
9422;SDS011;65863;49.506;10.400;2024-03-22T08:55:15;11.33;;;8.77;;
9422;SDS011;65863;49.506;10.400;2024-03-22T08:57:59;10.80;;;8.93;;
9422;SDS011;65863;49.506;10.400;2024-03-22T09:00:43;9.87;;;8.80;;
9422;SDS011;65863;49.506;10.400;2024-03-22T09:03:27;11.37;;;9.50;;
9422;SDS011;65863;49.506;10.400;2024-03-22T09:06:12;9.57;;;8.33;;
9422;SDS011;65863;49.506;10.400;2024-03-22T09:08:56;9.87;;;8.37;;
9422;SDS011;65863;49.506;10.400;2024-03-22T09:11:41;9.33;;;8.27;;
9422;SDS011;65863;49.506;10.400;2024-03-22T09:14:25;10.37;;;8.23;;
9422;SDS011;65863;49.506;10.400;2024-03-22T09:17:09;9.60;;;7.87;;
9422;SDS011;65863;49.506;10.400;2024-03-22T09:19:55;10.13;;;7.77;;
9422;SDS011;65863;49.506;10.400;2024-03-22T09:22:40;7.33;;;6.53;;
9422;SDS011;65863;49.506;10.400;2024-03-22T09:25:23;10.10;;;6.60;;
9422;SDS011;65863;49.506;10.400;2024-03-22T09:28:08;8.03;;;5.43;;
9422;SDS011;65863;49.506;10.400;2024-03-22T09:30:52;7.07;;;5.70;;
9422;SDS011;65863;49.506;10.400;2024-03-22T09:33:36;9.27;;;5.63;;
9422;SDS011;65863;49.506;10.400;2024-03-22T09:36:20;5.63;;;5.10;;
9422;SDS011;65863;49.506;10.400;2024-03-22T09:39:06;5.10;;;4.57;;
9422;SDS011;65863;49.506;10.400;2024-03-22T09:41:52;4.20;;;3.80;;
9422;SDS011;65863;49.506;10.400;2024-03-22T09:44:40;5.23;;;3.87;;
9422;SDS011;65863;49.506;10.400;2024-03-22T09:47:27;5.73;;;4.60;;
9422;SDS011;65863;49.506;10.400;2024-03-22T09:50:11;5.70;;;4.80;;
9422;SDS011;65863;49.506;10.400;2024-03-22T09:52:59;5.00;;;4.50;;
9422;SDS011;65863;49.506;10.400;2024-03-22T09:55:43;4.37;;;3.57;;
9422;SDS011;65863;49.506;10.400;2024-03-22T09:58:28;5.37;;;3.93;;
9422;SDS011;65863;49.506;10.400;2024-03-22T10:01:13;4.10;;;3.67;;
9422;SDS011;65863;49.506;10.400;2024-03-22T10:03:58;2.87;;;2.33;;
9422;SDS011;65863;49.506;10.400;2024-03-22T10:06:42;3.50;;;2.80;;
9422;SDS011;65863;49.506;10.400;2024-03-22T10:09:29;3.10;;;2.20;;
9422;SDS011;65863;49.506;10.400;2024-03-22T10:12:16;2.60;;;2.40;;
9422;SDS011;65863;49.506;10.400;2024-03-22T10:15:00;2.50;;;2.17;;
9422;SDS011;65863;49.506;10.400;2024-03-22T10:17:45;2.50;;;1.90;;
9422;SDS011;65863;49.506;10.400;2024-03-22T10:20:30;3.10;;;2.80;;
9422;SDS011;65863;49.506;10.400;2024-03-22T10:23:15;7.63;;;2.60;;
9422;SDS011;65863;49.506;10.400;2024-03-22T10:26:00;3.70;;;3.03;;
9422;SDS011;65863;49.506;10.400;2024-03-22T10:28:44;3.53;;;3.23;;
9422;SDS011;65863;49.506;10.400;2024-03-22T10:31:29;2.93;;;2.73;;
9422;SDS011;65863;49.506;10.400;2024-03-22T10:34:14;4.47;;;2.97;;
9422;SDS011;65863;49.506;10.400;2024-03-22T10:37:00;3.40;;;2.80;;
9422;SDS011;65863;49.506;10.400;2024-03-22T10:39:46;4.20;;;2.47;;
9422;SDS011;65863;49.506;10.400;2024-03-22T10:42:34;3.13;;;2.60;;
9422;SDS011;65863;49.506;10.400;2024-03-22T10:45:21;1.73;;;1.60;;
9422;SDS011;65863;49.506;10.400;2024-03-22T10:48:09;2.90;;;2.70;;
9422;SDS011;65863;49.506;10.400;2024-03-22T10:50:54;3.70;;;3.00;;
9422;SDS011;65863;49.506;10.400;2024-03-22T10:53:46;7.10;;;4.33;;
9422;SDS011;65863;49.506;10.400;2024-03-22T10:56:30;5.37;;;4.10;;
9422;SDS011;65863;49.506;10.400;2024-03-22T10:59:18;5.80;;;3.80;;
9422;SDS011;65863;49.506;10.400;2024-03-22T11:02:03;3.73;;;3.43;;
9422;SDS011;65863;49.506;10.400;2024-03-22T11:04:56;5.03;;;3.30;;
9422;SDS011;65863;49.506;10.400;2024-03-22T11:07:43;2.50;;;2.30;;
9422;SDS011;65863;49.506;10.400;2024-03-22T11:10:33;5.17;;;2.90;;
9422;SDS011;65863;49.506;10.400;2024-03-22T11:13:18;3.17;;;2.93;;
9422;SDS011;65863;49.506;10.400;2024-03-22T11:16:02;4.03;;;3.63;;
9422;SDS011;65863;49.506;10.400;2024-03-22T11:18:46;5.73;;;3.47;;
9422;SDS011;65863;49.506;10.400;2024-03-22T11:21:32;3.70;;;3.40;;
9422;SDS011;65863;49.506;10.400;2024-03-22T11:24:17;3.23;;;2.67;;
9422;SDS011;65863;49.506;10.400;2024-03-22T11:27:02;2.83;;;2.57;;
9422;SDS011;65863;49.506;10.400;2024-03-22T11:29:46;4.17;;;3.07;;
9422;SDS011;65863;49.506;10.400;2024-03-22T11:32:33;2.80;;;2.47;;
9422;SDS011;65863;49.506;10.400;2024-03-22T11:35:25;2.60;;;2.40;;
9422;SDS011;65863;49.506;10.400;2024-03-22T11:38:09;2.93;;;2.47;;
9422;SDS011;65863;49.506;10.400;2024-03-22T11:40:54;4.40;;;2.90;;
9422;SDS011;65863;49.506;10.400;2024-03-22T11:43:41;3.53;;;2.90;;
9422;SDS011;65863;49.506;10.400;2024-03-22T11:46:25;3.90;;;3.50;;
9422;SDS011;65863;49.506;10.400;2024-03-22T11:49:11;5.00;;;3.57;;
9422;SDS011;65863;49.506;10.400;2024-03-22T11:51:55;4.50;;;3.63;;
9422;SDS011;65863;49.506;10.400;2024-03-22T11:54:40;4.60;;;4.07;;
9422;SDS011;65863;49.506;10.400;2024-03-22T11:57:24;4.37;;;3.97;;
9422;SDS011;65863;49.506;10.400;2024-03-22T12:00:08;4.63;;;4.23;;
9422;SDS011;65863;49.506;10.400;2024-03-22T12:02:58;6.67;;;4.27;;
9422;SDS011;65863;49.506;10.400;2024-03-22T12:05:43;6.03;;;3.27;;
9422;SDS011;65863;49.506;10.400;2024-03-22T12:08:27;6.37;;;4.13;;
9422;SDS011;65863;49.506;10.400;2024-03-22T12:11:11;4.43;;;3.83;;
9422;SDS011;65863;49.506;10.400;2024-03-22T12:13:55;5.10;;;3.20;;
9422;SDS011;65863;49.506;10.400;2024-03-22T12:16:39;4.50;;;3.73;;
9422;SDS011;65863;49.506;10.400;2024-03-22T12:19:23;7.37;;;3.80;;
9422;SDS011;65863;49.506;10.400;2024-03-22T12:22:07;4.80;;;4.10;;
9422;SDS011;65863;49.506;10.400;2024-03-22T12:24:53;5.60;;;3.60;;
9422;SDS011;65863;49.506;10.400;2024-03-22T12:27:37;4.10;;;3.67;;
9422;SDS011;65863;49.506;10.400;2024-03-22T12:30:23;4.97;;;4.03;;
9422;SDS011;65863;49.506;10.400;2024-03-22T12:33:07;5.03;;;4.20;;
9422;SDS011;65863;49.506;10.400;2024-03-22T12:35:54;4.57;;;4.07;;
9422;SDS011;65863;49.506;10.400;2024-03-22T12:38:38;4.90;;;4.00;;
9422;SDS011;65863;49.506;10.400;2024-03-22T12:41:22;3.97;;;3.57;;
9422;SDS011;65863;49.506;10.400;2024-03-22T12:44:06;5.67;;;3.70;;
9422;SDS011;65863;49.506;10.400;2024-03-22T12:46:50;5.33;;;3.57;;
9422;SDS011;65863;49.506;10.400;2024-03-22T12:49:35;4.57;;;4.00;;
9422;SDS011;65863;49.506;10.400;2024-03-22T12:52:19;3.87;;;3.27;;
9422;SDS011;65863;49.506;10.400;2024-03-22T12:55:04;3.70;;;3.00;;
9422;SDS011;65863;49.506;10.400;2024-03-22T12:57:48;4.53;;;2.93;;
9422;SDS011;65863;49.506;10.400;2024-03-22T13:00:32;4.53;;;2.70;;
9422;SDS011;65863;49.506;10.400;2024-03-22T13:03:17;3.63;;;3.00;;
9422;SDS011;65863;49.506;10.400;2024-03-22T13:06:01;5.27;;;2.93;;
9422;SDS011;65863;49.506;10.400;2024-03-22T13:08:45;3.70;;;3.40;;
9422;SDS011;65863;49.506;10.400;2024-03-22T13:11:30;3.60;;;3.20;;
9422;SDS011;65863;49.506;10.400;2024-03-22T13:14:15;4.97;;;3.30;;
9422;SDS011;65863;49.506;10.400;2024-03-22T13:17:00;3.13;;;2.27;;
9422;SDS011;65863;49.506;10.400;2024-03-22T13:19:45;4.30;;;2.30;;
9422;SDS011;65863;49.506;10.400;2024-03-22T13:22:29;3.17;;;2.50;;
9422;SDS011;65863;49.506;10.400;2024-03-22T13:25:14;4.90;;;2.60;;
9422;SDS011;65863;49.506;10.400;2024-03-22T13:28:02;3.13;;;2.57;;
9422;SDS011;65863;49.506;10.400;2024-03-22T13:30:49;3.17;;;2.43;;
9422;SDS011;65863;49.506;10.400;2024-03-22T13:33:33;3.73;;;2.73;;
9422;SDS011;65863;49.506;10.400;2024-03-22T13:36:18;3.10;;;2.77;;
9422;SDS011;65863;49.506;10.400;2024-03-22T13:39:03;4.00;;;2.33;;
9422;SDS011;65863;49.506;10.400;2024-03-22T13:41:48;5.33;;;2.50;;
9422;SDS011;65863;49.506;10.400;2024-03-22T13:44:32;5.47;;;2.67;;
9422;SDS011;65863;49.506;10.400;2024-03-22T13:47:18;4.93;;;2.70;;
9422;SDS011;65863;49.506;10.400;2024-03-22T13:50:05;5.57;;;3.23;;
9422;SDS011;65863;49.506;10.400;2024-03-22T13:52:50;3.43;;;3.10;;
9422;SDS011;65863;49.506;10.400;2024-03-22T13:55:34;2.90;;;2.60;;
9422;SDS011;65863;49.506;10.400;2024-03-22T13:58:18;2.90;;;2.50;;
9422;SDS011;65863;49.506;10.400;2024-03-22T14:01:03;2.43;;;2.23;;
9422;SDS011;65863;49.506;10.400;2024-03-22T14:03:47;2.00;;;1.80;;
9422;SDS011;65863;49.506;10.400;2024-03-22T14:06:32;3.13;;;1.70;;
9422;SDS011;65863;49.506;10.400;2024-03-22T14:09:16;2.23;;;1.80;;
9422;SDS011;65863;49.506;10.400;2024-03-22T14:12:02;2.33;;;1.90;;
9422;SDS011;65863;49.506;10.400;2024-03-22T14:14:47;4.13;;;2.20;;
9422;SDS011;65863;49.506;10.400;2024-03-22T14:17:32;3.03;;;2.20;;
9422;SDS011;65863;49.506;10.400;2024-03-22T14:20:16;3.40;;;2.23;;
9422;SDS011;65863;49.506;10.400;2024-03-22T14:23:00;4.73;;;2.30;;
9422;SDS011;65863;49.506;10.400;2024-03-22T14:25:45;3.17;;;2.50;;
9422;SDS011;65863;49.506;10.400;2024-03-22T14:28:32;4.57;;;2.60;;
9422;SDS011;65863;49.506;10.400;2024-03-22T14:31:17;3.70;;;2.70;;
9422;SDS011;65863;49.506;10.400;2024-03-22T14:34:03;2.70;;;2.50;;
9422;SDS011;65863;49.506;10.400;2024-03-22T14:36:50;3.27;;;2.97;;
9422;SDS011;65863;49.506;10.400;2024-03-22T14:39:35;3.83;;;3.03;;
9422;SDS011;65863;49.506;10.400;2024-03-22T14:42:19;3.60;;;2.77;;
9422;SDS011;65863;49.506;10.400;2024-03-22T14:45:03;6.67;;;3.57;;
9422;SDS011;65863;49.506;10.400;2024-03-22T14:47:47;3.50;;;3.20;;
9422;SDS011;65863;49.506;10.400;2024-03-22T14:50:35;5.67;;;3.60;;
9422;SDS011;65863;49.506;10.400;2024-03-22T14:53:22;3.13;;;2.80;;
9422;SDS011;65863;49.506;10.400;2024-03-22T14:56:06;3.60;;;2.90;;
9422;SDS011;65863;49.506;10.400;2024-03-22T14:58:52;4.37;;;3.10;;
9422;SDS011;65863;49.506;10.400;2024-03-22T15:01:36;3.10;;;2.80;;
9422;SDS011;65863;49.506;10.400;2024-03-22T15:04:21;5.67;;;3.40;;
9422;SDS011;65863;49.506;10.400;2024-03-22T15:07:07;5.30;;;3.40;;
9422;SDS011;65863;49.506;10.400;2024-03-22T15:09:51;4.10;;;3.13;;
9422;SDS011;65863;49.506;10.400;2024-03-22T15:12:37;3.47;;;3.17;;
9422;SDS011;65863;49.506;10.400;2024-03-22T15:15:24;4.03;;;3.13;;
9422;SDS011;65863;49.506;10.400;2024-03-22T15:18:25;4.83;;;4.27;;
9422;SDS011;65863;49.506;10.400;2024-03-22T15:21:17;4.17;;;3.50;;
9422;SDS011;65863;49.506;10.400;2024-03-22T15:24:08;5.47;;;3.83;;
9422;SDS011;65863;49.506;10.400;2024-03-22T15:26:55;9.97;;;4.17;;
9422;SDS011;65863;49.506;10.400;2024-03-22T15:29:39;4.67;;;3.80;;
9422;SDS011;65863;49.506;10.400;2024-03-22T15:32:23;5.70;;;3.60;;
9422;SDS011;65863;49.506;10.400;2024-03-22T15:35:09;14.23;;;4.57;;
9422;SDS011;65863;49.506;10.400;2024-03-22T15:37:54;7.13;;;3.73;;
9422;SDS011;65863;49.506;10.400;2024-03-22T15:40:38;9.03;;;3.53;;
9422;SDS011;65863;49.506;10.400;2024-03-22T15:43:26;4.77;;;3.47;;
9422;SDS011;65863;49.506;10.400;2024-03-22T15:46:11;5.40;;;3.87;;
9422;SDS011;65863;49.506;10.400;2024-03-22T15:48:57;3.97;;;3.30;;
9422;SDS011;65863;49.506;10.400;2024-03-22T15:51:42;5.50;;;3.90;;
9422;SDS011;65863;49.506;10.400;2024-03-22T15:54:29;4.30;;;3.67;;
9422;SDS011;65863;49.506;10.400;2024-03-22T15:57:13;6.70;;;3.80;;
9422;SDS011;65863;49.506;10.400;2024-03-22T15:59:58;5.40;;;3.37;;
9422;SDS011;65863;49.506;10.400;2024-03-22T16:02:42;4.63;;;3.50;;
9422;SDS011;65863;49.506;10.400;2024-03-22T16:05:28;4.33;;;3.43;;
9422;SDS011;65863;49.506;10.400;2024-03-22T16:08:16;4.63;;;3.53;;
9422;SDS011;65863;49.506;10.400;2024-03-22T16:11:01;4.17;;;3.60;;
9422;SDS011;65863;49.506;10.400;2024-03-22T16:13:46;4.40;;;3.30;;
9422;SDS011;65863;49.506;10.400;2024-03-22T16:16:30;5.47;;;3.53;;
9422;SDS011;65863;49.506;10.400;2024-03-22T16:19:15;6.93;;;4.00;;
9422;SDS011;65863;49.506;10.400;2024-03-22T16:21:59;5.87;;;3.93;;